NZOH/OHA METAR and TAF weather

Enter ICAO airport designator
Station Type Date Time Source
NZOH METAR 2021/11/30 18:00 UTC NOAA

NZOH 301800Z 07010KT 20KM VCSH FEW005 BKN040 16/16 Q1020 NOSIG


Station Type Date Time Source
NZOH Decoded METAR 2021/11/30 18:00 UTC NOAA

Ohakea, New Zealand (NZOH) 40-12S 175-22E 52M
Nov 30, 2021 - 01:00 PM EST / 2021.11.30 1800 UTC
Wind: from the ENE (070 degrees) at 12 MPH (10 KT):0
Sky conditions: mostly cloudy
Weather: showers in the vicinity
Temperature: 60 F (16 C)
Dew Point: 60 F (16 C)
Relative Humidity: 100%
Pressure (altimeter): 30.12 in. Hg (1020 hPa)
ob: NZOH 301800Z 07010KT 20KM VCSH FEW005 BKN040 16/16 Q1020 NOSIG
cycle: 18

Station Type Date Time Source
NZOH TAF 2007/12/14 04:59 UTC NOAA

TAF NZOH 140459Z 140606 11020KT 30KM SCT080 BECMH 0911 03008KT
BECMG 2224 27012KT

Example: see airport list